Time;durP1;ratioP1;P1;durP2;ratioP2;P2;SDS_P1;SDS_P2;PMS_P1;PMS_P2;Temp;Humidity;BMP_temperature;BMP_pressure;BME280_temperature;BME280_humidity;BME280_pressure;Samples;Min_cycle;Max_cycle;Signal;HPM_P1;HPM_P2
2023/04/20 00:01:06;;;;;;;0.40;0.40;;;8.30;52.80;;;;;;5113704;28;20045;-72
2023/04/20 00:03:32;;;;;;;0.43;0.40;;;8.20;52.80;;;;;;5113744;28;20040;-72
2023/04/20 00:06:00;;;;;;;0.20;0.20;;;8.20;52.90;;;;;;5094716;28;20035;-72
2023/04/20 00:08:27;;;;;;;0.30;0.30;;;8.20;53.00;;;;;;5113667;28;20043;-72
2023/04/20 00:10:53;;;;;;;0.50;0.40;;;8.10;53.10;;;;;;5093898;28;20085;-72
2023/04/20 00:13:18;;;;;;;0.52;0.30;;;8.10;53.10;;;;;;5093561;28;20043;-72
2023/04/20 00:15:44;;;;;;;0.40;0.40;;;8.10;53.30;;;;;;5113172;28;20032;-72
2023/04/20 00:18:10;;;;;;;0.30;0.30;;;8.00;53.30;;;;;;5093844;28;20040;-72
2023/04/20 00:20:36;;;;;;;0.38;0.32;;;7.90;53.40;;;;;;5093323;28;20032;-72
2023/04/20 00:23:02;;;;;;;0.28;0.28;;;7.90;53.50;;;;;;5113481;28;20073;-72
2023/04/20 00:25:29;;;;;;;0.38;0.38;;;7.90;53.60;;;;;;5113516;28;20124;-72
2023/04/20 00:27:55;;;;;;;0.20;0.20;;;7.90;53.70;;;;;;5093662;28;20047;-72
2023/04/20 00:30:21;;;;;;;0.30;0.30;;;7.80;53.70;;;;;;5112942;28;20036;-72
2023/04/20 00:32:47;;;;;;;0.38;0.30;;;7.80;53.80;;;;;;5113168;28;20168;-72
2023/04/20 00:35:12;;;;;;;0.35;0.30;;;7.70;53.80;;;;;;5093925;28;20044;-72
2023/04/20 00:37:38;;;;;;;0.40;0.30;;;7.70;53.90;;;;;;5092654;28;20048;-72
2023/04/20 00:40:05;;;;;;;1.52;0.38;;;7.70;54.00;;;;;;5113302;28;20046;-72
2023/04/20 00:42:31;;;;;;;0.40;0.40;;;7.60;54.00;;;;;;5112687;28;20418;-72
2023/04/20 00:44:56;;;;;;;0.30;0.30;;;7.60;54.10;;;;;;5112545;28;20123;-72
2023/04/20 00:47:22;;;;;;;0.30;0.30;;;7.60;54.20;;;;;;5094451;28;20342;-72
2023/04/20 00:49:48;;;;;;;0.68;0.35;;;7.50;54.10;;;;;;5112610;28;20050;-72
2023/04/20 00:52:14;;;;;;;0.30;0.30;;;7.50;54.20;;;;;;5095038;28;20027;-72
2023/04/20 00:54:40;;;;;;;0.47;0.35;;;7.50;54.20;;;;;;5112663;28;20444;-72
2023/04/20 00:57:05;;;;;;;0.43;0.35;;;7.50;54.30;;;;;;5112825;28;20043;-72
2023/04/20 00:59:31;;;;;;;0.30;0.30;;;7.50;54.30;;;;;;5112424;28;20066;-72
2023/04/20 01:01:57;;;;;;;1.85;0.43;;;7.40;54.30;;;;;;5094118;28;20504;-72
2023/04/20 01:04:23;;;;;;;0.35;0.35;;;7.30;54.30;;;;;;5093520;28;20044;-72
2023/04/20 01:06:48;;;;;;;0.30;0.30;;;7.30;54.40;;;;;;5112559;28;20035;-72
2023/04/20 01:09:14;;;;;;;0.30;0.30;;;7.30;54.40;;;;;;5058673;28;20040;-72
2023/04/20 01:11:40;;;;;;;0.40;0.30;;;7.30;54.50;;;;;;5112332;28;20054;-72
2023/04/20 01:14:06;;;;;;;0.40;0.25;;;7.20;54.50;;;;;;5112424;28;20035;-72
2023/04/20 01:16:33;;;;;;;0.30;0.30;;;7.30;54.70;;;;;;5112397;28;20078;-72
2023/04/20 01:18:59;;;;;;;0.40;0.40;;;7.30;54.70;;;;;;5112248;28;20048;-72
2023/04/20 01:21:25;;;;;;;0.80;0.47;;;7.20;54.80;;;;;;5112308;28;20098;-72
2023/04/20 01:23:51;;;;;;;0.45;0.40;;;7.20;54.80;;;;;;5112223;28;20112;-71
2023/04/20 01:26:18;;;;;;;1.75;0.45;;;7.20;54.90;;;;;;5112266;28;20489;-71
2023/04/20 01:28:44;;;;;;;0.68;0.40;;;7.20;54.80;;;;;;5093934;28;20035;-71
2023/04/20 01:31:11;;;;;;;0.50;0.30;;;7.30;54.90;;;;;;5112204;28;20104;-71
2023/04/20 01:33:38;;;;;;;0.20;0.20;;;7.30;54.80;;;;;;5112236;28;20044;-71
2023/04/20 01:36:05;;;;;;;0.70;0.40;;;7.30;54.80;;;;;;5112262;28;20498;-71
2023/04/20 01:38:33;;;;;;;0.35;0.35;;;7.40;54.80;;;;;;5093482;28;20056;-72
2023/04/20 01:40:59;;;;;;;0.45;0.40;;;7.50;54.80;;;;;;5094986;28;20047;-71
2023/04/20 01:43:25;;;;;;;0.60;0.40;;;7.50;54.70;;;;;;5115892;28;20036;-71
2023/04/20 01:45:50;;;;;;;0.40;0.40;;;7.50;54.70;;;;;;5115581;28;20036;-71
2023/04/20 01:48:16;;;;;;;0.57;0.40;;;7.60;54.70;;;;;;5116014;28;20055;-71
2023/04/20 01:50:42;;;;;;;0.30;0.30;;;7.70;55.30;;;;;;5115559;28;20118;-72
2023/04/20 01:53:07;;;;;;;0.40;0.40;;;7.70;54.60;;;;;;5115539;28;20158;-71
2023/04/20 01:55:33;;;;;;;0.82;0.50;;;7.80;54.70;;;;;;5115203;28;20127;-71
2023/04/20 01:57:59;;;;;;;0.40;0.40;;;7.70;54.80;;;;;;5115370;28;20084;-71
2023/04/20 02:00:25;;;;;;;1.55;0.60;;;7.80;54.80;;;;;;5115127;28;20545;-71
2023/04/20 02:02:50;;;;;;;0.63;0.60;;;7.70;54.80;;;;;;5115158;28;20055;-72
2023/04/20 02:05:16;;;;;;;0.50;0.50;;;7.80;55.00;;;;;;5115348;28;20483;-71
2023/04/20 02:07:41;;;;;;;0.40;0.35;;;7.80;55.10;;;;;;5115474;28;20036;-72
2023/04/20 02:10:07;;;;;;;0.40;0.40;;;7.80;55.10;;;;;;5115061;28;20038;-72
2023/04/20 02:12:33;;;;;;;0.85;0.30;;;7.70;55.20;;;;;;5115111;28;20123;-72
2023/04/20 02:14:59;;;;;;;0.60;0.40;;;7.70;55.40;;;;;;5115239;28;20104;-72
2023/04/20 02:17:25;;;;;;;0.65;0.40;;;7.70;55.50;;;;;;5115022;28;20577;-71
2023/04/20 02:19:50;;;;;;;0.80;0.30;;;7.60;55.60;;;;;;5114905;28;20067;-72
2023/04/20 02:22:16;;;;;;;0.80;0.45;;;7.60;55.80;;;;;;5114988;28;20118;-71
2023/04/20 02:24:42;;;;;;;2.30;0.50;;;7.70;56.00;;;;;;5115188;28;20070;-71
2023/04/20 02:27:08;;;;;;;0.73;0.50;;;7.60;55.90;;;;;;5114791;28;20043;-71
2023/04/20 02:29:34;;;;;;;0.45;0.38;;;7.60;56.00;;;;;;5114913;28;20477;-71
2023/04/20 02:32:00;;;;;;;0.52;0.40;;;7.60;56.00;;;;;;5114849;28;20085;-71
2023/04/20 02:34:26;;;;;;;0.85;0.50;;;7.70;56.20;;;;;;5114739;28;20093;-72
2023/04/20 02:36:51;;;;;;;0.40;0.38;;;7.70;56.20;;;;;;5115129;28;20039;-71
2023/04/20 02:39:17;;;;;;;0.68;0.35;;;7.70;56.20;;;;;;5096461;28;20055;-71
2023/04/20 02:41:43;;;;;;;0.75;0.50;;;7.70;56.20;;;;;;5114739;28;20035;-71
2023/04/20 02:44:08;;;;;;;0.88;0.40;;;7.80;56.30;;;;;;5114575;28;20048;-71
2023/04/20 02:46:34;;;;;;;0.50;0.40;;;7.80;56.30;;;;;;5114941;28;20085;-71
2023/04/20 02:49:00;;;;;;;0.63;0.40;;;7.80;56.40;;;;;;5114520;28;20035;-72
2023/04/20 02:51:26;;;;;;;0.90;0.55;;;7.80;56.40;;;;;;5114519;28;20035;-72
2023/04/20 02:53:51;;;;;;;0.95;0.50;;;7.80;56.50;;;;;;5114723;28;20031;-71
2023/04/20 02:56:17;;;;;;;0.60;0.40;;;7.80;56.50;;;;;;5114620;28;20439;-71
2023/04/20 02:58:43;;;;;;;0.68;0.30;;;7.90;56.60;;;;;;5114806;28;20503;-72
2023/04/20 03:01:09;;;;;;;0.30;0.30;;;7.90;56.60;;;;;;5114508;28;20123;-72
2023/04/20 03:03:35;;;;;;;0.45;0.40;;;7.90;56.60;;;;;;5114727;28;20044;-71
2023/04/20 03:06:00;;;;;;;0.63;0.40;;;8.00;56.70;;;;;;5079193;28;20119;-72
2023/04/20 03:08:26;;;;;;;0.65;0.40;;;8.00;56.80;;;;;;5114238;28;20048;-72
2023/04/20 03:10:52;;;;;;;0.95;0.57;;;8.00;56.80;;;;;;5095545;28;20043;-72
2023/04/20 03:13:18;;;;;;;0.47;0.47;;;8.00;56.90;;;;;;5113984;28;20102;-71
2023/04/20 03:15:45;;;;;;;0.50;0.50;;;8.00;56.90;;;;;;5094292;28;20076;-72
2023/04/20 03:18:11;;;;;;;0.50;0.50;;;8.00;56.90;;;;;;5114039;28;20497;-72
2023/04/20 03:20:37;;;;;;;0.68;0.50;;;8.00;57.00;;;;;;5114019;28;20071;-71
2023/04/20 03:23:02;;;;;;;0.50;0.50;;;8.10;57.10;;;;;;5114376;28;20044;-71
2023/04/20 03:25:28;;;;;;;0.82;0.50;;;8.10;57.10;;;;;;5114098;28;20040;-71
2023/04/20 03:27:54;;;;;;;0.57;0.50;;;8.10;57.10;;;;;;5113827;28;20446;-72
2023/04/20 03:30:19;;;;;;;0.70;0.50;;;8.10;57.20;;;;;;5114179;28;20131;-72
2023/04/20 03:32:45;;;;;;;0.45;0.40;;;8.10;57.20;;;;;;5095824;28;20043;-71
2023/04/20 03:35:10;;;;;;;2.15;0.50;;;8.20;57.30;;;;;;5114136;28;20063;-71
2023/04/20 03:37:36;;;;;;;0.75;0.60;;;8.20;57.40;;;;;;5114089;28;20065;-71
2023/04/20 03:40:03;;;;;;;0.77;0.43;;;8.10;57.40;;;;;;5113821;28;20043;-71
2023/04/20 03:42:29;;;;;;;0.77;0.50;;;8.10;57.50;;;;;;5114193;28;20489;-72
2023/04/20 03:44:57;;;;;;;0.30;0.30;;;8.10;57.50;;;;;;5113999;28;20039;-71
2023/04/20 03:47:23;;;;;;;0.88;0.60;;;8.20;57.60;;;;;;5051145;28;20037;-71
2023/04/20 03:49:49;;;;;;;0.52;0.38;;;8.10;57.60;;;;;;5051088;28;20473;-71
2023/04/20 03:52:15;;;;;;;1.42;0.60;;;8.10;57.70;;;;;;5051025;28;20048;-72
2023/04/20 03:54:41;;;;;;;0.60;0.43;;;8.10;57.70;;;;;;5051441;28;20040;-72
2023/04/20 03:57:06;;;;;;;1.75;0.43;;;8.10;57.80;;;;;;5050928;28;20080;-71
2023/04/20 03:59:32;;;;;;;0.52;0.50;;;8.20;57.90;;;;;;5050924;28;20482;-71
2023/04/20 04:01:58;;;;;;;0.55;0.50;;;8.20;58.50;;;;;;5051195;28;20041;-71
2023/04/20 04:04:24;;;;;;;0.43;0.40;;;8.20;58.00;;;;;;5050300;28;20049;-72
2023/04/20 04:06:50;;;;;;;2.10;0.70;;;8.20;58.10;;;;;;5034147;28;20051;-72
2023/04/20 04:09:16;;;;;;;1.60;0.50;;;8.20;58.10;;;;;;5050827;28;20048;-71
2023/04/20 04:11:42;;;;;;;0.52;0.30;;;8.20;58.20;;;;;;5051086;28;20045;-72
2023/04/20 04:14:07;;;;;;;0.35;0.32;;;8.20;58.20;;;;;;5051178;28;20049;-72
2023/04/20 04:16:33;;;;;;;0.80;0.50;;;8.20;58.30;;;;;;5051106;28;20049;-72
2023/04/20 04:18:58;;;;;;;1.02;0.50;;;8.20;58.30;;;;;;5085152;28;20052;-71
2023/04/20 04:21:24;;;;;;;0.60;0.50;;;8.20;58.40;;;;;;5113770;28;20040;-71
2023/04/20 04:23:50;;;;;;;0.40;0.40;;;8.20;58.40;;;;;;5113210;28;20050;-71
2023/04/20 04:26:17;;;;;;;1.25;0.68;;;8.20;58.60;;;;;;5094082;28;20029;-72
2023/04/20 04:28:44;;;;;;;0.57;0.57;;;8.10;58.60;;;;;;5113112;28;20039;-71
2023/04/20 04:31:11;;;;;;;0.77;0.50;;;8.20;58.60;;;;;;5113248;28;20043;-71
2023/04/20 04:33:36;;;;;;;0.40;0.40;;;8.20;58.70;;;;;;5113420;28;20048;-71
2023/04/20 04:36:03;;;;;;;0.73;0.45;;;8.20;58.70;;;;;;5093546;28;20048;-71
2023/04/20 04:38:30;;;;;;;0.40;0.40;;;8.20;58.80;;;;;;5113109;28;20085;-71
2023/04/20 04:40:56;;;;;;;0.38;0.35;;;8.20;58.80;;;;;;5094624;28;20035;-72
2023/04/20 04:43:23;;;;;;;0.47;0.45;;;8.20;58.90;;;;;;5112800;28;20046;-72
2023/04/20 04:45:48;;;;;;;1.35;0.52;;;8.20;58.90;;;;;;5112953;28;20039;-72
2023/04/20 04:48:14;;;;;;;0.60;0.60;;;8.20;58.90;;;;;;5113117;28;20039;-71
2023/04/20 04:50:40;;;;;;;0.70;0.57;;;8.30;59.00;;;;;;5094154;28;20039;-71
2023/04/20 04:53:06;;;;;;;1.20;0.50;;;8.30;59.00;;;;;;5094125;28;20489;-71
2023/04/20 04:55:32;;;;;;;0.98;0.57;;;8.40;59.10;;;;;;5113162;28;20054;-71
2023/04/20 04:57:58;;;;;;;1.10;0.60;;;8.30;59.60;;;;;;5113222;28;20039;-71
2023/04/20 05:00:24;;;;;;;0.40;0.40;;;8.30;59.10;;;;;;5112743;28;20046;-71
2023/04/20 05:02:51;;;;;;;0.73;0.50;;;8.30;59.10;;;;;;5094722;28;20047;-73
2023/04/20 05:05:18;;;;;;;0.98;0.60;;;8.40;59.10;;;;;;5113107;28;20122;-73
2023/04/20 05:07:44;;;;;;;0.63;0.60;;;8.30;59.10;;;;;;5112717;28;20544;-73
2023/04/20 05:10:09;;;;;;;0.70;0.45;;;8.30;59.20;;;;;;5112792;28;20074;-73
2023/04/20 05:12:35;;;;;;;0.57;0.45;;;8.30;59.20;;;;;;5113058;28;20477;-73
2023/04/20 05:15:01;;;;;;;0.57;0.45;;;8.30;59.30;;;;;;5077834;28;20122;-73
2023/04/20 05:17:27;;;;;;;0.60;0.60;;;8.30;59.30;;;;;;5097124;28;20043;-74
2023/04/20 05:19:52;;;;;;;0.40;0.40;;;8.40;59.30;;;;;;5116192;28;20035;-74
2023/04/20 05:22:18;;;;;;;0.73;0.52;;;8.30;59.30;;;;;;5097749;28;20523;-74
2023/04/20 05:24:44;;;;;;;0.85;0.70;;;8.40;59.50;;;;;;5116237;28;20047;-74
2023/04/20 05:27:10;;;;;;;0.40;0.40;;;8.40;59.40;;;;;;5096506;28;20043;-74
2023/04/20 05:29:36;;;;;;;0.57;0.45;;;8.50;59.40;;;;;;5116080;28;20039;-74
2023/04/20 05:32:02;;;;;;;0.57;0.47;;;8.50;59.40;;;;;;5116628;28;20047;-74
2023/04/20 05:34:28;;;;;;;0.75;0.43;;;8.50;59.50;;;;;;5116555;28;20042;-74
2023/04/20 05:36:53;;;;;;;0.63;0.50;;;8.50;59.50;;;;;;5097970;28;20043;-74
2023/04/20 05:39:19;;;;;;;0.40;0.40;;;8.40;59.50;;;;;;5097730;28;20035;-74
2023/04/20 05:41:46;;;;;;;0.50;0.50;;;8.50;59.60;;;;;;5116395;28;20051;-74
2023/04/20 05:44:12;;;;;;;0.55;0.47;;;8.50;59.70;;;;;;5115894;28;20499;-75
2023/04/20 05:46:38;;;;;;;0.80;0.50;;;8.60;59.70;;;;;;5052658;28;20037;-72
2023/04/20 05:49:03;;;;;;;0.57;0.45;;;8.60;59.80;;;;;;5036308;28;20096;-73
2023/04/20 05:51:32;;;;;;;1.15;0.43;;;8.50;59.80;;;;;;5036544;28;20041;-73
2023/04/20 05:53:59;;;;;;;1.70;0.60;;;8.60;59.90;;;;;;5037048;28;20576;-74
2023/04/20 05:56:24;;;;;;;0.65;0.60;;;8.60;59.90;;;;;;5052942;28;20195;-73
2023/04/20 05:58:51;;;;;;;0.88;0.60;;;8.60;59.90;;;;;;5053291;28;20052;-73
2023/04/20 06:01:17;;;;;;;1.00;0.60;;;8.70;60.00;;;;;;5053357;28;20041;-73
2023/04/20 06:03:43;;;;;;;0.52;0.50;;;8.70;59.90;;;;;;5052880;28;20556;-73
2023/04/20 06:06:08;;;;;;;0.47;0.35;;;8.70;59.90;;;;;;5035995;28;20053;-74
2023/04/20 06:08:35;;;;;;;0.60;0.40;;;8.80;59.90;;;;;;5053161;28;20499;-72
2023/04/20 06:11:01;;;;;;;0.40;0.40;;;8.90;59.80;;;;;;5035732;28;20041;-73
2023/04/20 06:13:27;;;;;;;0.93;0.60;;;8.90;59.70;;;;;;5035986;28;20045;-72
2023/04/20 06:15:52;;;;;;;0.40;0.40;;;9.00;59.70;;;;;;5052854;28;20633;-72
2023/04/20 06:18:18;;;;;;;0.40;0.40;;;9.00;59.70;;;;;;5100885;28;20062;-74
2023/04/20 06:20:45;;;;;;;0.38;0.38;;;9.00;60.30;;;;;;5115298;28;20122;-72
2023/04/20 06:23:11;;;;;;;0.88;0.40;;;9.00;59.70;;;;;;5096590;28;20442;-74
2023/04/20 06:25:37;;;;;;;0.52;0.50;;;9.00;59.70;;;;;;5114334;28;20047;-74
2023/04/20 06:28:03;;;;;;;0.73;0.40;;;9.10;59.80;;;;;;5115063;28;20031;-74
2023/04/20 06:30:29;;;;;;;1.13;0.50;;;9.00;59.70;;;;;;5115604;28;20051;-73
2023/04/20 06:32:55;;;;;;;0.60;0.60;;;9.00;59.80;;;;;;5114972;28;20040;-75
2023/04/20 06:35:22;;;;;;;0.60;0.60;;;9.10;59.90;;;;;;5115271;28;20096;-75
2023/04/20 06:37:48;;;;;;;0.50;0.40;;;9.10;60.00;;;;;;5114998;28;20048;-75
2023/04/20 06:40:14;;;;;;;0.50;0.50;;;9.20;59.90;;;;;;5114939;28;20428;-72
2023/04/20 06:42:40;;;;;;;0.77;0.52;;;9.30;59.80;;;;;;5115016;28;20035;-75
2023/04/20 06:45:06;;;;;;;1.20;0.65;;;9.40;59.60;;;;;;5115131;28;20036;-72
2023/04/20 06:47:32;;;;;;;1.45;0.68;;;9.50;59.60;;;;;;5114741;28;20035;-74
2023/04/20 06:49:59;;;;;;;0.50;0.47;;;9.60;59.50;;;;;;5115040;28;20094;-74
2023/04/20 06:52:25;;;;;;;1.02;0.65;;;9.70;59.50;;;;;;5094802;28;20548;-73
2023/04/20 06:54:51;;;;;;;0.88;0.50;;;9.90;59.30;;;;;;5114643;28;20081;-73
2023/04/20 06:57:17;;;;;;;1.10;0.68;;;10.00;59.10;;;;;;5114894;28;20538;-73
2023/04/20 06:59:42;;;;;;;1.83;0.80;;;9.90;59.00;;;;;;5095067;28;20043;-73
2023/04/20 07:02:08;;;;;;;0.57;0.57;;;10.00;59.20;;;;;;5115120;28;20040;-73
2023/04/20 07:04:33;;;;;;;1.42;0.70;;;9.90;59.30;;;;;;5114573;28;20151;-73
2023/04/20 07:06:59;;;;;;;0.98;0.88;;;9.90;59.50;;;;;;5094837;28;20131;-73
2023/04/20 07:09:25;;;;;;;1.02;0.80;;;9.80;59.50;;;;;;5096686;28;20130;-72
2023/04/20 07:11:51;;;;;;;1.60;0.70;;;10.00;59.80;;;;;;5114795;28;20434;-73
2023/04/20 07:14:17;;;;;;;1.45;0.90;;;9.90;59.70;;;;;;5079240;28;20131;-73
2023/04/20 07:16:43;;;;;;;1.00;0.82;;;10.00;59.80;;;;;;5114424;28;20073;-73
2023/04/20 07:19:08;;;;;;;2.13;0.77;;;10.00;59.80;;;;;;5114808;28;20051;-73
2023/04/20 07:21:34;;;;;;;1.30;0.82;;;10.00;59.80;;;;;;5114227;28;20043;-74
2023/04/20 07:24:00;;;;;;;1.02;0.88;;;9.90;59.80;;;;;;5114101;28;20051;-73
2023/04/20 07:26:26;;;;;;;0.80;0.60;;;9.90;60.00;;;;;;5114107;28;20126;-73
2023/04/20 07:28:52;;;;;;;1.42;0.82;;;9.90;60.20;;;;;;5114259;28;20035;-74
2023/04/20 07:31:17;;;;;;;1.20;0.75;;;9.90;60.40;;;;;;5096228;28;20048;-73
2023/04/20 07:33:43;;;;;;;0.63;0.63;;;9.80;60.50;;;;;;5114264;28;20047;-72
2023/04/20 07:36:09;;;;;;;1.00;0.80;;;9.70;60.70;;;;;;5114335;28;20051;-74
2023/04/20 07:38:35;;;;;;;1.20;0.70;;;9.70;60.80;;;;;;5113066;28;20035;-73
2023/04/20 07:41:01;;;;;;;0.77;0.77;;;9.70;60.90;;;;;;5094043;28;20078;-73
2023/04/20 07:43:27;;;;;;;1.38;0.77;;;9.70;61.00;;;;;;5113773;28;20047;-73
2023/04/20 07:45:53;;;;;;;1.13;1.00;;;9.60;61.00;;;;;;5114098;28;20070;-73
2023/04/20 07:48:18;;;;;;;1.40;0.90;;;9.70;61.10;;;;;;5113944;28;20032;-73
2023/04/20 07:50:45;;;;;;;1.02;0.77;;;9.70;61.20;;;;;;5113898;28;20028;-73
2023/04/20 07:53:11;;;;;;;0.80;0.80;;;9.80;61.20;;;;;;5114431;28;20385;-73
2023/04/20 07:55:36;;;;;;;1.30;1.00;;;9.80;61.70;;;;;;5114237;28;20048;-73
2023/04/20 07:58:02;;;;;;;1.33;0.95;;;9.90;61.00;;;;;;5095442;28;20143;-73
2023/04/20 08:00:28;;;;;;;1.25;0.93;;;10.00;60.80;;;;;;5113520;28;20544;-73
2023/04/20 08:02:54;;;;;;;1.05;0.90;;;10.00;60.70;;;;;;5114079;28;20088;-73
2023/04/20 08:05:20;;;;;;;1.48;0.80;;;10.10;60.60;;;;;;5113549;28;20084;-73
2023/04/20 08:07:45;;;;;;;1.88;0.80;;;10.20;60.60;;;;;;5077961;28;20497;-73
2023/04/20 08:10:11;;;;;;;0.98;0.73;;;10.10;60.60;;;;;;5113599;28;20028;-73
2023/04/20 08:12:37;;;;;;;1.13;0.88;;;10.20;60.70;;;;;;5113628;28;20540;-72
2023/04/20 08:15:05;;;;;;;1.08;0.70;;;10.20;60.60;;;;;;5113531;28;20408;-72
2023/04/20 08:17:31;;;;;;;0.90;0.70;;;10.30;60.70;;;;;;5094335;28;20397;-73
2023/04/20 08:19:57;;;;;;;1.08;0.90;;;10.30;60.80;;;;;;5094454;28;20050;-73
2023/04/20 08:22:26;;;;;;;1.88;0.60;;;10.20;61.00;;;;;;5109865;28;20540;-72
2023/04/20 08:24:52;;;;;;;0.88;0.70;;;10.30;61.00;;;;;;5113246;28;20101;-72
2023/04/20 08:27:18;;;;;;;1.20;0.82;;;10.40;60.90;;;;;;5113149;28;20142;-73
2023/04/20 08:29:44;;;;;;;0.90;0.70;;;10.50;60.80;;;;;;5113123;28;20071;-73
2023/04/20 08:32:11;;;;;;;0.82;0.80;;;10.40;60.80;;;;;;5092988;28;20044;-73
2023/04/20 08:34:37;;;;;;;0.73;0.73;;;10.30;60.90;;;;;;5113138;28;20055;-72
2023/04/20 08:37:03;;;;;;;0.88;0.63;;;10.40;61.20;;;;;;5113007;28;20055;-73
2023/04/20 08:39:29;;;;;;;1.20;1.00;;;10.40;61.10;;;;;;5093366;28;20092;-73
2023/04/20 08:41:56;;;;;;;0.77;0.57;;;10.50;61.10;;;;;;5112835;28;20184;-73
2023/04/20 08:44:22;;;;;;;0.55;0.52;;;10.50;61.10;;;;;;5093818;28;20075;-73
2023/04/20 08:46:49;;;;;;;0.68;0.57;;;10.40;61.20;;;;;;5113220;28;20043;-72
2023/04/20 08:49:15;;;;;;;1.98;0.65;;;10.30;61.50;;;;;;5092576;28;20066;-73
2023/04/20 08:51:42;;;;;;;0.93;0.70;;;10.30;61.60;;;;;;5095039;28;20040;-73
2023/04/20 08:54:10;;;;;;;0.98;0.65;;;10.30;61.70;;;;;;5112701;28;20044;-73
2023/04/20 08:56:39;;;;;;;1.17;0.82;;;10.30;61.80;;;;;;5112791;28;20071;-73
2023/04/20 08:59:08;;;;;;;1.33;0.93;;;10.30;61.80;;;;;;5093435;28;20550;-72
2023/04/20 09:01:36;;;;;;;0.73;0.70;;;10.20;61.80;;;;;;5112769;28;20036;-74
2023/04/20 09:04:13;;;;;;;1.42;1.00;;;10.20;61.90;;;;;;5112715;28;20493;-73
2023/04/20 09:06:44;;;;;;;0.77;0.77;;;10.10;62.30;;;;;;5094539;28;20475;-73
2023/04/20 09:09:10;;;;;;;0.95;0.75;;;10.30;62.20;;;;;;5112560;28;20511;-73
2023/04/20 09:11:36;;;;;;;0.93;0.70;;;10.20;62.20;;;;;;5094552;28;20557;-74
2023/04/20 09:14:05;;;;;;;0.93;0.82;;;10.20;62.20;;;;;;5113073;28;20039;-73
2023/04/20 09:16:33;;;;;;;1.70;0.80;;;10.30;62.20;;;;;;5094507;28;20035;-73
2023/04/20 09:18:59;;;;;;;1.30;0.75;;;10.30;62.20;;;;;;5112671;28;20047;-73
2023/04/20 09:21:27;;;;;;;1.17;0.70;;;10.30;62.20;;;;;;5113018;28;20047;-73
2023/04/20 09:23:58;;;;;;;0.70;0.50;;;10.40;62.20;;;;;;5113102;28;20038;-73
2023/04/20 09:26:24;;;;;;;0.80;0.80;;;10.30;62.20;;;;;;5109871;28;20087;-73
2023/04/20 09:28:50;;;;;;;0.80;0.80;;;10.30;62.20;;;;;;5090557;28;20040;-73
2023/04/20 09:31:18;;;;;;;0.57;0.57;;;10.30;62.20;;;;;;5112379;28;20048;-73
2023/04/20 09:33:43;;;;;;;0.95;0.70;;;10.20;62.30;;;;;;5112655;28;20043;-73
2023/04/20 09:36:09;;;;;;;0.77;0.60;;;10.20;62.50;;;;;;5092510;28;20044;-73
2023/04/20 09:38:35;;;;;;;1.35;0.77;;;10.20;62.50;;;;;;5112334;28;20039;-73
2023/04/20 09:41:01;;;;;;;1.27;0.75;;;10.20;62.60;;;;;;5112408;28;20036;-73
2023/04/20 09:43:29;;;;;;;0.80;0.80;;;10.20;62.70;;;;;;5112505;28;20119;-72
2023/04/20 09:45:55;;;;;;;0.82;0.50;;;10.10;62.80;;;;;;5092273;28;20079;-71
2023/04/20 09:48:21;;;;;;;0.60;0.60;;;10.10;63.00;;;;;;5112684;28;20035;-72
2023/04/20 09:50:47;;;;;;;1.00;0.60;;;10.20;63.00;;;;;;5112126;28;20073;-72
2023/04/20 09:53:17;;;;;;;0.82;0.70;;;10.00;63.10;;;;;;5112164;28;20082;-72
2023/04/20 09:55:48;;;;;;;1.33;0.70;;;10.00;63.20;;;;;;5112586;28;20127;-72
2023/04/20 09:58:15;;;;;;;0.70;0.63;;;9.90;63.30;;;;;;5111890;28;20070;-72
2023/04/20 10:00:41;;;;;;;1.08;0.80;;;10.00;63.40;;;;;;5075171;28;20043;-73
2023/04/20 10:03:09;;;;;;;0.88;0.57;;;10.10;63.20;;;;;;5080048;28;20138;-72
2023/04/20 10:05:38;;;;;;;0.50;0.50;;;10.10;63.10;;;;;;5115435;28;20049;-72
2023/04/20 10:08:04;;;;;;;1.05;0.70;;;10.20;62.80;;;;;;5115487;28;20049;-73
2023/04/20 10:10:30;;;;;;;1.35;0.90;;;10.30;62.70;;;;;;5095685;28;20119;-72
2023/04/20 10:13:00;;;;;;;0.40;0.40;;;10.40;62.60;;;;;;5115601;28;20445;-73
2023/04/20 10:15:39;;;;;;;0.65;0.60;;;10.50;62.50;;;;;;5097129;28;20035;-72
2023/04/20 10:18:19;;;;;;;0.60;0.60;;;10.60;62.30;;;;;;5115220;28;20477;-72
2023/04/20 10:20:45;;;;;;;0.65;0.40;;;10.80;62.20;;;;;;5115245;28;20067;-72
2023/04/20 10:23:13;;;;;;;1.13;0.60;;;10.90;61.90;;;;;;5115210;28;20508;-73
2023/04/20 10:25:40;;;;;;;0.60;0.60;;;11.00;61.70;;;;;;5115498;28;20056;-72
2023/04/20 10:28:09;;;;;;;1.17;0.75;;;11.10;61.50;;;;;;5115132;28;20040;-72
2023/04/20 10:30:36;;;;;;;1.35;0.70;;;11.20;61.50;;;;;;5115036;28;20136;-72
2023/04/20 10:33:06;;;;;;;1.13;0.80;;;11.20;61.40;;;;;;5115039;28;20062;-73
2023/04/20 10:35:50;;;;;;;0.80;0.65;;;11.30;61.20;;;;;;5115430;28;20136;-72
2023/04/20 10:38:29;;;;;;;0.77;0.60;;;11.30;61.10;;;;;;5115010;28;20035;-72
2023/04/20 10:40:55;;;;;;;1.00;0.60;;;11.40;61.10;;;;;;5095644;28;20044;-71
2023/04/20 10:43:21;;;;;;;0.80;0.70;;;11.50;61.30;;;;;;5095018;28;20126;-71
2023/04/20 10:45:48;;;;;;;0.57;0.57;;;11.40;61.30;;;;;;5115028;28;20059;-72
2023/04/20 10:48:13;;;;;;;0.80;0.70;;;11.60;61.30;;;;;;5114796;28;20474;-72
2023/04/20 10:50:39;;;;;;;0.93;0.70;;;11.50;61.10;;;;;;5114879;28;20040;-74
2023/04/20 10:53:15;;;;;;;0.63;0.60;;;11.60;61.00;;;;;;5114911;28;20039;-72
2023/04/20 10:55:41;;;;;;;0.90;0.75;;;11.70;61.00;;;;;;5115134;28;20100;-73
2023/04/20 10:58:07;;;;;;;0.50;0.50;;;11.70;60.90;;;;;;5114752;28;20488;-73
2023/04/20 11:00:32;;;;;;;0.60;0.60;;;11.70;60.90;;;;;;5114514;28;20143;-73
2023/04/20 11:02:58;;;;;;;0.60;0.47;;;11.90;61.10;;;;;;5095170;28;20386;-72
2023/04/20 11:05:26;;;;;;;0.77;0.52;;;12.00;60.70;;;;;;5114595;28;20043;-72
2023/04/20 11:07:53;;;;;;;1.08;0.80;;;12.10;60.50;;;;;;5096607;28;20047;-72
2023/04/20 11:10:20;;;;;;;0.57;0.57;;;12.20;60.40;;;;;;5096048;28;20044;-72
2023/04/20 11:12:46;;;;;;;0.80;0.70;;;12.10;60.40;;;;;;5113433;28;20039;-73
2023/04/20 11:15:12;;;;;;;1.13;0.90;;;12.10;61.20;;;;;;5094741;28;20166;-73
2023/04/20 11:17:39;;;;;;;0.70;0.70;;;12.00;60.60;;;;;;5095989;28;20040;-73
2023/04/20 11:20:11;;;;;;;1.05;0.90;;;11.90;60.80;;;;;;5114443;28;20044;-73
2023/04/20 11:22:38;;;;;;;1.60;1.00;;;11.80;61.10;;;;;;5114284;28;20051;-72
2023/04/20 11:25:05;;;;;;;1.00;0.90;;;11.60;61.30;;;;;;5114249;28;20074;-73
2023/04/20 11:27:31;;;;;;;0.98;0.75;;;11.40;61.60;;;;;;5114434;28;20074;-72
2023/04/20 11:29:58;;;;;;;0.98;0.88;;;11.40;61.90;;;;;;5096836;28;20084;-72
2023/04/20 11:32:25;;;;;;;0.82;0.82;;;11.40;62.10;;;;;;5095481;28;20097;-73
2023/04/20 11:35:00;;;;;;;1.08;0.60;;;11.40;62.10;;;;;;5114165;28;20050;-72
2023/04/20 11:37:27;;;;;;;1.45;1.10;;;11.40;62.00;;;;;;5114563;28;20488;-72
2023/04/20 11:40:02;;;;;;;0.82;0.70;;;11.40;61.90;;;;;;5078951;28;20054;-72
2023/04/20 11:42:28;;;;;;;0.88;0.82;;;11.50;61.90;;;;;;5095819;28;20035;-72
2023/04/20 11:44:55;;;;;;;0.80;0.80;;;11.50;61.70;;;;;;5095130;28;20092;-72
2023/04/20 11:47:20;;;;;;;1.50;0.88;;;11.50;61.60;;;;;;5094793;28;20059;-71
2023/04/20 11:49:46;;;;;;;1.17;1.08;;;11.70;61.50;;;;;;5114354;28;20090;-72
2023/04/20 11:52:11;;;;;;;1.02;0.82;;;11.70;61.30;;;;;;5114331;28;20038;-73
2023/04/20 11:54:37;;;;;;;1.50;0.90;;;11.60;61.20;;;;;;5094339;28;20079;-73
2023/04/20 11:57:03;;;;;;;0.90;0.80;;;11.60;61.20;;;;;;5095516;28;20126;-72
2023/04/20 11:59:29;;;;;;;1.95;0.98;;;11.60;61.30;;;;;;5113810;28;20481;-72
2023/04/20 12:01:54;;;;;;;1.08;0.80;;;11.40;61.40;;;;;;5113887;28;20039;-72
2023/04/20 12:04:20;;;;;;;1.10;1.00;;;11.40;61.60;;;;;;5114252;28;20043;-72
2023/04/20 12:06:46;;;;;;;1.30;0.73;;;11.40;61.70;;;;;;5078814;28;20508;-72
2023/04/20 12:09:12;;;;;;;1.30;0.80;;;11.40;61.70;;;;;;5095480;28;20393;-73
2023/04/20 12:11:38;;;;;;;0.82;0.70;;;11.40;61.60;;;;;;5113582;28;20051;-73
2023/04/20 12:14:03;;;;;;;1.00;0.90;;;11.50;61.70;;;;;;5095355;28;20055;-72
2023/04/20 12:16:29;;;;;;;1.20;0.82;;;11.40;61.50;;;;;;5113427;28;20086;-73
2023/04/20 12:18:55;;;;;;;1.23;0.80;;;11.60;61.50;;;;;;5077071;28;20047;-72
2023/04/20 12:21:21;;;;;;;1.38;0.93;;;11.60;61.30;;;;;;5113261;28;20084;-72
2023/04/20 12:23:48;;;;;;;1.15;0.90;;;11.60;61.10;;;;;;5112588;28;20047;-72
2023/04/20 12:26:14;;;;;;;0.88;0.80;;;11.60;61.20;;;;;;5094329;28;20039;-72
2023/04/20 12:28:39;;;;;;;0.93;0.80;;;11.60;61.30;;;;;;5113199;28;20043;-71
2023/04/20 12:31:06;;;;;;;1.10;1.00;;;11.50;61.40;;;;;;5094581;28;20043;-72
2023/04/20 12:33:32;;;;;;;0.93;0.88;;;11.40;61.50;;;;;;5112993;28;20043;-72
2023/04/20 12:35:57;;;;;;;1.02;0.85;;;11.50;61.70;;;;;;5113160;28;20044;-72
2023/04/20 12:38:23;;;;;;;1.33;0.90;;;11.40;61.70;;;;;;5113103;28;20055;-72
2023/04/20 12:40:49;;;;;;;0.90;0.80;;;11.40;61.80;;;;;;5113307;28;20696;-72
2023/04/20 12:43:15;;;;;;;1.23;1.00;;;11.40;61.80;;;;;;5113346;28;20040;-72
2023/04/20 12:45:40;;;;;;;1.20;1.10;;;11.40;61.70;;;;;;5113146;28;20047;-71
2023/04/20 12:48:06;;;;;;;1.52;0.85;;;11.50;61.60;;;;;;5112716;28;20057;-73